createdAt,value
2018-11-07T00:00:54.516Z,0
2018-11-07T00:02:04.473Z,0
2018-11-07T00:03:14.428Z,0
2018-11-07T00:04:24.138Z,0
2018-11-07T00:05:34.074Z,0
2018-11-07T00:06:43.762Z,0
2018-11-07T00:07:53.791Z,0
2018-11-07T00:09:03.452Z,0
2018-11-07T00:10:13.138Z,0
2018-11-07T00:11:23.089Z,0
2018-11-07T00:12:33.036Z,0
2018-11-07T00:13:42.727Z,0
2018-11-07T00:14:52.417Z,0
2018-11-07T00:16:02.373Z,0
2018-11-07T00:17:12.327Z,0
2018-11-07T00:18:22.016Z,0
2018-11-07T00:19:31.299Z,0
2018-11-07T00:20:41.304Z,0
2018-11-07T00:21:50.730Z,0
2018-11-07T00:23:00.460Z,0
2018-11-07T00:24:10.434Z,0
2018-11-07T00:25:20.129Z,0
2018-11-07T00:26:30.668Z,0
2018-11-07T00:27:40.188Z,0
2018-11-07T00:28:49.882Z,0
2018-11-07T00:29:59.969Z,0
2018-11-07T00:31:09.396Z,0
2018-11-07T00:32:19.081Z,0
2018-11-07T00:33:28.500Z,0
2018-11-07T00:34:37.673Z,0
2018-11-07T00:35:47.349Z,0
2018-11-07T00:36:57.045Z,0
2018-11-07T00:38:06.471Z,0
2018-11-07T00:39:15.895Z,0
2018-11-07T00:40:25.577Z,0
2018-11-07T00:41:35.275Z,0
2018-11-07T00:42:44.960Z,0
2018-11-07T00:43:53.872Z,0
2018-11-07T00:45:03.565Z,0
2018-11-07T00:46:13.002Z,0
2018-11-07T00:47:22.438Z,0
2018-11-07T00:48:32.391Z,0
2018-11-07T00:49:42.081Z,0
2018-11-07T00:50:51.515Z,0
2018-11-07T00:52:00.948Z,0
2018-11-07T00:53:10.646Z,0
2018-11-07T00:54:20.094Z,0
2018-11-07T00:55:29.771Z,0
2018-11-07T00:56:39.462Z,0
2018-11-07T00:57:48.953Z,0
2018-11-07T00:58:58.933Z,0
2018-11-07T01:00:08.633Z,0
2018-11-07T01:01:18.070Z,0
2018-11-07T01:02:27.498Z,0
2018-11-07T01:03:37.178Z,0
2018-11-07T01:04:47.113Z,0
2018-11-07T01:05:57.345Z,0
2018-11-07T01:07:07.306Z,0
2018-11-07T01:08:16.999Z,0
2018-11-07T01:09:27.054Z,0
2018-11-07T01:10:38.410Z,0
2018-11-07T01:11:48.432Z,0
2018-11-07T01:12:58.390Z,0
2018-11-07T01:14:08.118Z,0
2018-11-07T01:15:18.065Z,0
2018-11-07T01:16:27.796Z,0
2018-11-07T01:17:37.753Z,0
2018-11-07T01:18:47.431Z,0
2018-11-07T01:19:57.372Z,0
2018-11-07T01:21:07.088Z,0
2018-11-07T01:22:16.890Z,0
2018-11-07T01:23:26.899Z,0
2018-11-07T01:24:36.573Z,0
2018-11-07T01:25:45.995Z,0
2018-11-07T01:26:55.436Z,0
2018-11-07T01:28:05.293Z,0
2018-11-07T01:29:15.034Z,0
2018-11-07T01:30:24.993Z,0
2018-11-07T01:31:34.687Z,0
2018-11-07T01:32:44.134Z,0
2018-11-07T01:33:53.815Z,0
2018-11-07T01:35:03.507Z,0
2018-11-07T01:36:13.206Z,0
2018-11-07T01:37:23.157Z,0
2018-11-07T01:38:32.589Z,0
2018-11-07T01:39:42.279Z,0
2018-11-07T01:40:51.967Z,0
2018-11-07T01:42:02.053Z,0
2018-11-07T01:43:11.041Z,0
2018-11-07T01:44:20.985Z,0
2018-11-07T01:45:30.563Z,0
2018-11-07T01:46:40.526Z,0
2018-11-07T01:47:50.233Z,0
2018-11-07T01:49:00.183Z,0
2018-11-07T01:50:10.136Z,0
2018-11-07T01:51:19.566Z,0
2018-11-07T01:52:29.252Z,0
2018-11-07T01:53:39.203Z,0
2018-11-07T01:54:49.146Z,0
2018-11-07T01:55:58.863Z,0
2018-11-07T01:57:08.806Z,0
2018-11-07T01:58:18.231Z,0
2018-11-07T01:59:27.936Z,0
2018-11-07T02:00:37.611Z,0
2018-11-07T02:01:47.299Z,0
2018-11-07T02:02:56.994Z,0
2018-11-07T02:04:06.931Z,0
2018-11-07T02:05:16.607Z,0
2018-11-07T02:06:26.550Z,0
2018-11-07T02:07:36.469Z,0
2018-11-07T02:08:46.428Z,0
2018-11-07T02:09:56.383Z,0
2018-11-07T02:11:05.810Z,0
2018-11-07T02:12:15.743Z,0
2018-11-07T02:13:25.433Z,0
2018-11-07T02:14:35.371Z,0
2018-11-07T02:15:45.303Z,0
2018-11-07T02:16:54.998Z,0
2018-11-07T02:18:04.953Z,0
2018-11-07T02:19:14.364Z,0
2018-11-07T02:20:23.539Z,0
2018-11-07T02:21:33.486Z,0
2018-11-07T02:22:43.435Z,0
2018-11-07T02:23:53.127Z,0
2018-11-07T02:25:02.296Z,0
2018-11-07T02:26:12.158Z,0
2018-11-07T02:27:21.862Z,0
2018-11-07T02:28:31.807Z,0
2018-11-07T02:29:41.238Z,0
2018-11-07T02:30:50.940Z,0
2018-11-07T02:32:00.666Z,0
2018-11-07T02:33:10.365Z,0
2018-11-07T02:34:19.805Z,0
2018-11-07T02:35:29.745Z,0
2018-11-07T02:36:39.716Z,0
2018-11-07T02:37:49.405Z,0
2018-11-07T02:38:59.351Z,0
2018-11-07T02:40:09.647Z,0
2018-11-07T02:41:19.591Z,0
2018-11-07T02:42:29.287Z,0
2018-11-07T02:43:38.997Z,0
2018-11-07T02:44:48.978Z,0
2018-11-07T02:45:58.954Z,0
2018-11-07T02:47:08.909Z,0
2018-11-07T02:48:18.336Z,0
2018-11-07T02:49:28.033Z,0
2018-11-07T02:50:37.975Z,0
2018-11-07T02:51:47.928Z,0
2018-11-07T02:52:57.631Z,0
2018-11-07T02:54:07.339Z,0
2018-11-07T02:55:17.292Z,0
2018-11-07T02:56:26.981Z,0
2018-11-07T02:57:36.419Z,0
2018-11-07T02:58:46.372Z,0
2018-11-07T02:59:56.072Z,0
2018-11-07T03:01:06.045Z,0
2018-11-07T03:02:15.724Z,0
2018-11-07T03:03:25.165Z,0
2018-11-07T03:04:35.128Z,0
2018-11-07T03:05:45.071Z,0
2018-11-07T03:06:55.018Z,0
2018-11-07T03:08:04.713Z,0
2018-11-07T03:09:14.419Z,0
2018-11-07T03:10:24.234Z,0
2018-11-07T03:11:33.944Z,0
2018-11-07T03:12:43.904Z,0
2018-11-07T03:13:53.610Z,0
2018-11-07T03:15:02.785Z,0
2018-11-07T03:16:12.740Z,0
2018-11-07T03:17:22.444Z,0
2018-11-07T03:18:32.400Z,0
2018-11-07T03:19:42.125Z,0
2018-11-07T03:20:52.083Z,0
2018-11-07T03:22:01.281Z,0
2018-11-07T03:23:11.225Z,0
2018-11-07T03:24:20.643Z,0
2018-11-07T03:25:30.317Z,0
2018-11-07T03:26:39.486Z,0
2018-11-07T03:27:48.917Z,0
2018-11-07T03:28:58.607Z,0
2018-11-07T03:30:08.302Z,0
2018-11-07T03:31:17.736Z,0
2018-11-07T03:32:27.744Z,0
2018-11-07T03:33:37.445Z,0
2018-11-07T03:34:46.616Z,0
2018-11-07T03:35:56.580Z,0
2018-11-07T03:37:06.282Z,0
2018-11-07T03:38:15.954Z,0
2018-11-07T03:39:25.647Z,0
2018-11-07T03:40:35.068Z,0
2018-11-07T03:41:44.753Z,0
2018-11-07T03:42:54.713Z,0
2018-11-07T03:44:04.434Z,0
2018-11-07T03:45:14.124Z,0
2018-11-07T03:46:23.826Z,0
2018-11-07T03:47:33.530Z,0
2018-11-07T03:48:43.502Z,0
2018-11-07T03:49:53.443Z,0
2018-11-07T03:51:03.137Z,0
2018-11-07T03:52:13.095Z,0
2018-11-07T03:53:23.452Z,0
2018-11-07T03:54:33.531Z,0
2018-11-07T03:55:43.479Z,0
2018-11-07T03:56:53.182Z,0
2018-11-07T03:58:02.878Z,0
2018-11-07T03:59:12.550Z,0
2018-11-07T04:00:22.502Z,0
2018-11-07T04:01:32.444Z,0
2018-11-07T04:02:41.874Z,0
2018-11-07T04:03:51.570Z,0
2018-11-07T04:05:01.519Z,0
2018-11-07T04:06:10.688Z,0
2018-11-07T04:07:20.643Z,0
2018-11-07T04:08:30.341Z,0
2018-11-07T04:09:40.281Z,0
2018-11-07T04:10:49.963Z,0
2018-11-07T04:11:59.676Z,0
2018-11-07T04:13:09.617Z,0
2018-11-07T04:14:19.314Z,0
2018-11-07T04:15:28.758Z,0
2018-11-07T04:16:38.453Z,0
2018-11-07T04:17:48.170Z,0
2018-11-07T04:18:57.848Z,0
2018-11-07T04:20:07.810Z,0
2018-11-07T04:21:17.233Z,0
2018-11-07T04:22:27.198Z,0
2018-11-07T04:23:36.883Z,0
2018-11-07T04:24:46.577Z,0
2018-11-07T04:25:56.549Z,0
2018-11-07T04:27:06.245Z,0
2018-11-07T04:28:15.672Z,0
2018-11-07T04:29:25.615Z,0
2018-11-07T04:30:34.790Z,0
2018-11-07T04:31:44.476Z,0
2018-11-07T04:32:54.170Z,0
2018-11-07T04:34:03.855Z,0
2018-11-07T04:35:13.796Z,0
2018-11-07T04:36:23.484Z,0
2018-11-07T04:37:33.422Z,0
2018-11-07T04:38:43.091Z,0
2018-11-07T04:39:52.778Z,0
2018-11-07T04:41:02.467Z,0
2018-11-07T04:42:12.162Z,0
2018-11-07T04:43:22.144Z,0
2018-11-07T04:44:32.743Z,0
2018-11-07T04:45:42.479Z,0
2018-11-07T04:46:52.428Z,0
2018-11-07T04:48:02.384Z,0
2018-11-07T04:49:11.822Z,0
2018-11-07T04:50:21.264Z,0
2018-11-07T04:51:31.221Z,0
2018-11-07T04:52:41.191Z,0
2018-11-07T04:53:51.159Z,0
2018-11-07T04:55:01.110Z,0
2018-11-07T04:56:10.528Z,0
2018-11-07T04:57:19.959Z,0
2018-11-07T04:58:29.391Z,0
2018-11-07T04:59:39.084Z,0
2018-11-07T05:00:49.032Z,0
2018-11-07T05:01:58.975Z,0
2018-11-07T05:03:08.409Z,0
2018-11-07T05:04:18.120Z,0
2018-11-07T05:05:27.813Z,0
2018-11-07T05:06:37.497Z,0
2018-11-07T05:07:47.459Z,0
2018-11-07T05:08:57.478Z,0
2018-11-07T05:10:07.444Z,0
2018-11-07T05:11:17.120Z,0
2018-11-07T05:12:27.049Z,0
2018-11-07T05:13:36.482Z,0
2018-11-07T05:14:46.377Z,0
2018-11-07T05:15:55.814Z,0
2018-11-07T05:17:05.505Z,0
2018-11-07T05:18:15.449Z,0
2018-11-07T05:19:25.138Z,0
2018-11-07T05:20:34.580Z,0
2018-11-07T05:21:44.291Z,0
2018-11-07T05:22:54.222Z,0
2018-11-07T05:24:04.184Z,0
2018-11-07T05:25:13.889Z,0
2018-11-07T05:26:24.514Z,0
2018-11-07T05:27:34.348Z,0
2018-11-07T05:28:44.025Z,0
2018-11-07T05:29:53.209Z,0
2018-11-07T05:31:02.905Z,0
2018-11-07T05:32:13.257Z,0
2018-11-07T05:33:23.200Z,0
2018-11-07T05:34:32.629Z,0
2018-11-07T05:35:42.342Z,0
2018-11-07T05:36:52.040Z,0
2018-11-07T05:38:01.717Z,0
2018-11-07T05:39:11.798Z,0
2018-11-07T05:40:20.969Z,0
2018-11-07T05:41:30.134Z,0
2018-11-07T05:42:39.832Z,0
2018-11-07T05:43:49.513Z,0
2018-11-07T05:44:59.435Z,0
2018-11-07T05:46:09.126Z,0
2018-11-07T05:47:18.814Z,0
2018-11-07T05:48:28.776Z,0
2018-11-07T05:49:38.474Z,0
2018-11-07T05:50:48.184Z,0
2018-11-07T05:51:57.623Z,0
2018-11-07T05:53:07.563Z,0
2018-11-07T05:54:16.999Z,0
2018-11-07T05:55:26.697Z,0
2018-11-07T05:56:36.642Z,0
2018-11-07T05:57:46.332Z,0
2018-11-07T05:58:55.821Z,0
2018-11-07T06:00:05.537Z,0
2018-11-07T06:01:15.223Z,5
2018-11-07T06:02:24.919Z,5
2018-11-07T06:03:34.607Z,5
2018-11-07T06:04:44.556Z,5
2018-11-07T06:05:53.480Z,5
2018-11-07T06:07:03.170Z,5
2018-11-07T06:08:12.348Z,10
2018-11-07T06:09:21.769Z,10
2018-11-07T06:10:31.209Z,10
2018-11-07T06:11:41.149Z,10
2018-11-07T06:12:51.105Z,15
2018-11-07T06:14:01.050Z,15
2018-11-07T06:15:10.729Z,15
2018-11-07T06:16:20.961Z,20
2018-11-07T06:17:30.677Z,20
2018-11-07T06:18:40.641Z,20
2018-11-07T06:19:50.600Z,25
2018-11-07T06:21:00.556Z,25
2018-11-07T06:22:10.248Z,30
2018-11-07T06:23:20.201Z,30
2018-11-07T06:24:30.794Z,35
2018-11-07T06:25:40.811Z,35
2018-11-07T06:26:50.255Z,40
2018-11-07T06:27:59.960Z,40
2018-11-07T06:29:09.922Z,40
2018-11-07T06:30:19.887Z,45
2018-11-07T06:31:29.311Z,45
2018-11-07T06:32:38.998Z,50
2018-11-07T06:33:48.470Z,50
2018-11-07T06:34:57.846Z,55
2018-11-07T06:36:07.531Z,55
2018-11-07T06:37:17.227Z,60
2018-11-07T06:38:26.924Z,65
2018-11-07T06:39:36.886Z,65
2018-11-07T06:40:46.852Z,70
2018-11-07T06:41:56.559Z,70
2018-11-07T06:43:06.502Z,75
2018-11-07T06:44:16.448Z,75
2018-11-07T06:45:26.145Z,80
2018-11-07T06:46:35.837Z,80
2018-11-07T06:47:45.792Z,85
2018-11-07T06:48:55.483Z,90
2018-11-07T06:50:05.177Z,90
2018-11-07T06:51:14.585Z,90
2018-11-07T06:52:24.275Z,95
2018-11-07T06:53:34.240Z,95
2018-11-07T06:54:43.672Z,100
2018-11-07T06:55:53.471Z,100
2018-11-07T06:57:02.566Z,105
2018-11-07T06:58:12.515Z,105
2018-11-07T06:59:21.939Z,110
2018-11-07T07:00:31.641Z,110
2018-11-07T07:01:41.166Z,115
2018-11-07T07:02:51.129Z,120
2018-11-07T07:04:00.555Z,120
2018-11-07T07:05:10.056Z,125
2018-11-07T07:06:19.490Z,130
2018-11-07T07:07:29.448Z,130
2018-11-07T07:08:39.397Z,135
2018-11-07T07:09:49.341Z,140
2018-11-07T07:10:59.045Z,140
2018-11-07T07:12:08.753Z,145
2018-11-07T07:13:18.208Z,150
2018-11-07T07:14:28.163Z,150
2018-11-07T07:15:37.869Z,155
2018-11-07T07:16:47.301Z,155
2018-11-07T07:17:57.638Z,160
2018-11-07T07:19:07.642Z,155
2018-11-07T07:20:17.589Z,155
2018-11-07T07:21:27.539Z,165
2018-11-07T07:22:36.719Z,170
2018-11-07T07:23:46.693Z,175
2018-11-07T07:24:56.391Z,175
2018-11-07T07:26:05.567Z,180
2018-11-07T07:27:15.266Z,185
2018-11-07T07:28:24.709Z,185
2018-11-07T07:29:34.671Z,190
2018-11-07T07:30:44.737Z,190
2018-11-07T07:31:54.441Z,195
2018-11-07T07:33:04.263Z,195
2018-11-07T07:34:13.575Z,200
2018-11-07T07:35:23.538Z,200
2018-11-07T07:36:32.971Z,200
2018-11-07T07:37:42.930Z,220
2018-11-07T07:38:52.662Z,235
2018-11-07T07:40:02.357Z,240
2018-11-07T07:41:12.127Z,240
2018-11-07T07:42:21.846Z,245
2018-11-07T07:43:31.555Z,250
2018-11-07T07:44:41.757Z,255
2018-11-07T07:45:52.195Z,260
2018-11-07T07:47:01.962Z,270
2018-11-07T07:48:11.981Z,270
2018-11-07T07:49:22.625Z,275
2018-11-07T07:50:32.715Z,285
2018-11-07T07:51:42.263Z,295
2018-11-07T07:52:51.998Z,300
2018-11-07T07:54:01.693Z,310
2018-11-07T07:55:11.152Z,320
2018-11-07T07:56:20.607Z,325
2018-11-07T07:57:30.156Z,330
2018-11-07T07:58:39.607Z,335
2018-11-07T07:59:49.557Z,345
2018-11-07T08:00:59.269Z,350
2018-11-07T08:02:09.256Z,355
2018-11-07T08:03:18.760Z,365
2018-11-07T08:04:28.226Z,370
2018-11-07T08:05:37.959Z,380
2018-11-07T08:06:47.745Z,390
2018-11-07T08:07:57.469Z,400
2018-11-07T08:09:06.649Z,405
2018-11-07T08:10:16.354Z,415
2018-11-07T08:11:25.824Z,420
2018-11-07T08:12:35.016Z,435
2018-11-07T08:13:45.539Z,450
2018-11-07T08:14:55.245Z,455
2018-11-07T08:16:04.707Z,460
2018-11-07T08:17:14.439Z,480
2018-11-07T08:18:24.404Z,485
2018-11-07T08:19:34.101Z,495
2018-11-07T08:20:44.069Z,500
2018-11-07T08:21:54.057Z,510
2018-11-07T08:23:03.758Z,515
2018-11-07T08:24:13.477Z,530
2018-11-07T08:25:22.915Z,545
2018-11-07T08:26:32.357Z,565
2018-11-07T08:27:42.346Z,565
2018-11-07T08:28:51.800Z,590
2018-11-07T08:30:01.274Z,600
2018-11-07T08:31:11.536Z,595
2018-11-07T08:32:21.223Z,610
2018-11-07T08:33:31.182Z,610
2018-11-07T08:34:40.877Z,595
2018-11-07T08:35:50.572Z,655
2018-11-07T08:37:00.272Z,665
2018-11-07T08:38:09.971Z,670
2018-11-07T08:39:19.660Z,660
2018-11-07T08:40:29.602Z,675
2018-11-07T08:41:39.036Z,695
2018-11-07T08:42:49.012Z,695
2018-11-07T08:43:58.709Z,690
2018-11-07T08:45:08.677Z,730
2018-11-07T08:46:18.129Z,735
2018-11-07T08:47:28.099Z,760
2018-11-07T08:48:37.801Z,765
2018-11-07T08:49:47.506Z,770
2018-11-07T08:50:56.947Z,795
2018-11-07T08:52:06.384Z,785
2018-11-07T08:53:16.100Z,780
2018-11-07T08:54:25.541Z,800
2018-11-07T08:55:35.234Z,810
2018-11-07T08:56:44.659Z,830
2018-11-07T08:57:54.387Z,820
2018-11-07T08:59:04.369Z,840
2018-11-07T09:00:14.343Z,845
2018-11-07T09:01:24.413Z,850
2018-11-07T09:02:33.797Z,855
2018-11-07T09:03:43.760Z,850
2018-11-07T09:04:53.476Z,890
2018-11-07T09:06:02.908Z,880
2018-11-07T09:07:12.605Z,890
2018-11-07T09:08:22.555Z,900
2018-11-07T09:09:32.506Z,960
2018-11-07T09:10:42.484Z,970
2018-11-07T09:11:51.943Z,960
2018-11-07T09:13:01.392Z,1000
2018-11-07T09:14:11.091Z,960
2018-11-07T09:15:20.282Z,975
2018-11-07T09:16:30.016Z,980
2018-11-07T09:17:39.725Z,1005
2018-11-07T09:18:49.444Z,1030
2018-11-07T09:19:59.541Z,1055
2018-11-07T09:21:09.556Z,1075
2018-11-07T09:22:19.313Z,1040
2018-11-07T09:23:28.797Z,1080
2018-11-07T09:24:38.922Z,1115
2018-11-07T09:25:48.891Z,1090
2018-11-07T09:26:58.627Z,1105
2018-11-07T09:28:08.345Z,1125
2018-11-07T09:29:18.835Z,1165
2018-11-07T09:30:28.354Z,1160
2018-11-07T09:31:38.338Z,1135
2018-11-07T09:32:48.402Z,1145
2018-11-07T09:33:58.375Z,1180
2018-11-07T09:35:07.567Z,1195
2018-11-07T09:36:17.029Z,1210
2018-11-07T09:37:26.961Z,1245
2018-11-07T09:38:36.928Z,1235
2018-11-07T09:39:47.020Z,1215
2018-11-07T09:40:56.170Z,1235
2018-11-07T09:42:06.128Z,1230
2018-11-07T09:43:15.575Z,1240
2018-11-07T09:44:25.309Z,1195
2018-11-07T09:45:34.756Z,1185
2018-11-07T09:46:47.703Z,1120
2018-11-07T09:50:33.423Z,1180
2018-11-07T09:51:52.622Z,1200
2018-11-07T09:53:13.212Z,1215
2018-11-07T09:54:32.732Z,1255
2018-11-07T09:55:42.208Z,1225
2018-11-07T09:56:52.169Z,1205
2018-11-07T09:58:01.866Z,1200
2018-11-07T09:59:11.613Z,1210
2018-11-07T10:00:24.556Z,1270
2018-11-07T10:01:34.259Z,1265
2018-11-07T10:02:43.713Z,1230
2018-11-07T10:03:53.151Z,1305
2018-11-07T10:05:03.119Z,1350
2018-11-07T10:06:12.575Z,1360
2018-11-07T10:07:22.532Z,1475
2018-11-07T10:08:31.983Z,1370
2018-11-07T10:09:41.939Z,1320
2018-11-07T10:10:51.893Z,1405
2018-11-07T10:12:01.850Z,1365
2018-11-07T10:13:11.851Z,1465
2018-11-07T10:14:21.292Z,1415
2018-11-07T10:15:30.752Z,1335
2018-11-07T10:16:40.469Z,1440
2018-11-07T10:17:50.177Z,1340
2018-11-07T10:18:59.879Z,1385
2018-11-07T10:20:09.584Z,1445
2018-11-07T10:21:19.566Z,1335
2018-11-07T10:22:29.541Z,1360
2018-11-07T10:23:39.498Z,1195
2018-11-07T10:24:49.198Z,920
2018-11-07T10:25:59.150Z,575
2018-11-07T10:27:10.279Z,505
2018-11-07T10:28:20.892Z,865
2018-11-07T10:29:33.957Z,910
2018-11-07T10:30:44.081Z,1070
2018-11-07T10:31:54.039Z,865
2018-11-07T10:33:03.749Z,880
2018-11-07T10:34:13.484Z,1080
2018-11-07T10:35:22.926Z,1095
2018-11-07T10:36:32.637Z,1270
2018-11-07T10:37:42.832Z,1245
2018-11-07T10:38:52.570Z,1265
2018-11-07T10:40:03.253Z,1095
2018-11-07T10:41:12.710Z,1025
2018-11-07T10:42:22.416Z,935
2018-11-07T10:43:31.877Z,1295
2018-11-07T10:44:41.729Z,1330
2018-11-07T10:45:50.936Z,1325
2018-11-07T10:47:00.638Z,1280
2018-11-07T10:48:10.366Z,1055
2018-11-07T10:49:20.068Z,1185
2018-11-07T10:50:29.771Z,1525
2018-11-07T10:51:39.924Z,1610
2018-11-07T10:52:49.380Z,1670
2018-11-07T10:53:59.102Z,1625
2018-11-07T10:55:08.833Z,1810
2018-11-07T10:56:18.657Z,1695
2018-11-07T10:57:28.612Z,1540
2018-11-07T10:58:38.356Z,1565
2018-11-07T10:59:48.063Z,1640
2018-11-07T11:00:57.758Z,1655
2018-11-07T11:02:07.709Z,1535
2018-11-07T11:03:17.148Z,1355
2018-11-07T11:04:26.600Z,1500
2018-11-07T11:05:36.588Z,1195
2018-11-07T11:06:46.314Z,1425
2018-11-07T11:07:56.278Z,1660
2018-11-07T11:09:05.494Z,1675
2018-11-07T11:10:15.453Z,1575
2018-11-07T11:11:25.631Z,1545
2018-11-07T11:12:35.680Z,1515
2018-11-07T11:13:45.131Z,1545
2018-11-07T11:14:54.912Z,1520
2018-11-07T11:16:04.896Z,1590
2018-11-07T11:17:14.728Z,1580
2018-11-07T11:18:24.425Z,1625
2018-11-07T11:19:34.124Z,1595
2018-11-07T11:20:43.845Z,1520
2018-11-07T11:21:53.807Z,1430
2018-11-07T11:23:03.808Z,1420
2018-11-07T11:24:13.536Z,1590
2018-11-07T11:25:22.980Z,1720
2018-11-07T11:26:32.953Z,1635
2018-11-07T11:27:43.327Z,1675
2018-11-07T11:28:53.298Z,1655
2018-11-07T11:30:03.059Z,1610
2018-11-07T11:31:13.302Z,1440
2018-11-07T11:32:22.767Z,1350
2018-11-07T11:33:32.740Z,1400
2018-11-07T11:34:43.356Z,1425
2018-11-07T11:35:53.106Z,1470
2018-11-07T11:37:03.057Z,1650
2018-11-07T11:38:12.791Z,1545
2018-11-07T11:39:22.243Z,1440
2018-11-07T11:40:32.295Z,1475
2018-11-07T11:41:42.060Z,1335
2018-11-07T11:42:52.051Z,1370
2018-11-07T11:44:01.762Z,1495
2018-11-07T11:45:11.729Z,1710
2018-11-07T11:46:21.452Z,1755
2018-11-07T11:47:31.437Z,1640
2018-11-07T11:48:41.123Z,1420
2018-11-07T11:49:50.821Z,1680
2018-11-07T11:51:00.057Z,1795
2018-11-07T11:52:09.798Z,1860
2018-11-07T11:53:19.777Z,1860
2018-11-07T11:54:29.499Z,1765
2018-11-07T11:55:39.470Z,1815
2018-11-07T11:56:49.433Z,1780
2018-11-07T11:57:58.953Z,1870
2018-11-07T11:59:09.377Z,1980
2018-11-07T12:00:20.911Z,1865
2018-11-07T12:01:30.329Z,1835
2018-11-07T12:02:40.327Z,1900
2018-11-07T12:03:50.338Z,1880
2018-11-07T12:05:00.303Z,1830
2018-11-07T12:06:10.346Z,1865
2018-11-07T12:07:20.053Z,1850
2018-11-07T12:08:30.176Z,1860
2018-11-07T12:09:39.468Z,1850
2018-11-07T12:10:48.904Z,1840
2018-11-07T12:11:58.497Z,1750
2018-11-07T12:13:08.429Z,1655
2018-11-07T12:14:17.883Z,1500
2018-11-07T12:15:28.200Z,1555
2018-11-07T12:16:37.368Z,1475
2018-11-07T12:17:47.459Z,1560
2018-11-07T12:18:57.481Z,1655
2018-11-07T12:20:07.469Z,1615
2018-11-07T12:21:17.914Z,1765
2018-11-07T12:22:27.972Z,1725
2018-11-07T12:23:37.921Z,1565
2018-11-07T12:24:47.655Z,1520
2018-11-07T12:25:57.623Z,1555
2018-11-07T12:27:07.779Z,1585
2018-11-07T12:28:17.505Z,1560
2018-11-07T12:29:27.004Z,1595
2018-11-07T12:30:36.968Z,1720
2018-11-07T12:31:46.694Z,1545
2018-11-07T12:32:56.358Z,1665
2018-11-07T12:34:06.076Z,1685
2018-11-07T12:35:15.812Z,1610
2018-11-07T12:36:26.388Z,1700
2018-11-07T12:37:36.179Z,1710
2018-11-07T12:38:46.379Z,1445
2018-11-07T12:39:56.349Z,1475
2018-11-07T12:41:06.334Z,1325
2018-11-07T12:42:16.299Z,1160
2018-11-07T12:43:25.756Z,860
2018-11-07T12:44:35.703Z,840
2018-11-07T12:45:45.419Z,790
2018-11-07T12:46:55.418Z,895
2018-11-07T12:48:05.412Z,950
2018-11-07T12:49:15.371Z,1020
2018-11-07T12:50:25.495Z,990
2018-11-07T12:51:35.542Z,1085
2018-11-07T12:52:45.522Z,995
2018-11-07T12:53:55.494Z,955
2018-11-07T12:55:05.453Z,1065
2018-11-07T12:56:15.425Z,1135
2018-11-07T12:57:26.380Z,1215
2018-11-07T12:58:36.484Z,1190
2018-11-07T12:59:46.460Z,1040
2018-11-07T13:00:56.417Z,955
2018-11-07T13:02:06.372Z,830
2018-11-07T13:03:16.509Z,865
2018-11-07T13:04:26.364Z,1010
2018-11-07T13:05:36.065Z,1235
2018-11-07T13:06:46.052Z,1270
2018-11-07T13:07:55.760Z,1140
2018-11-07T13:09:05.718Z,1075
2018-11-07T13:10:15.417Z,980
2018-11-07T13:11:25.117Z,1015
2018-11-07T13:12:34.605Z,1090
2018-11-07T13:13:44.334Z,1025
2018-11-07T13:14:54.303Z,855
2018-11-07T13:16:04.029Z,715
2018-11-07T13:17:13.753Z,585
2018-11-07T13:18:23.735Z,515
2018-11-07T13:19:33.472Z,530
2018-11-07T13:20:43.192Z,545
2018-11-07T13:21:52.913Z,535
2018-11-07T13:23:02.379Z,520
2018-11-07T13:24:12.363Z,525
2018-11-07T13:25:21.824Z,510
2018-11-07T13:26:31.560Z,495
2018-11-07T13:27:41.013Z,535
2018-11-07T13:28:51.330Z,625
2018-11-07T13:30:01.349Z,765
2018-11-07T13:31:10.812Z,805
2018-11-07T13:32:20.504Z,740
2018-11-07T13:33:30.253Z,730
2018-11-07T13:34:40.256Z,705
2018-11-07T13:35:50.017Z,655
2018-11-07T13:37:00.558Z,585
2018-11-07T13:38:12.174Z,485
2018-11-07T13:39:24.037Z,440
2018-11-07T13:40:34.006Z,415
2018-11-07T13:41:43.709Z,390
2018-11-07T13:42:52.649Z,380
2018-11-07T13:44:02.607Z,365
2018-11-07T13:45:12.373Z,365
2018-11-07T13:46:22.097Z,370
2018-11-07T13:47:31.818Z,380
2018-11-07T13:48:41.298Z,395
2018-11-07T13:49:50.752Z,380
2018-11-07T13:51:00.725Z,370
2018-11-07T13:52:10.692Z,410
2018-11-07T13:53:21.284Z,465
2018-11-07T13:54:30.980Z,505
2018-11-07T13:55:40.412Z,500
2018-11-07T13:56:49.864Z,480
2018-11-07T13:57:59.817Z,505
2018-11-07T13:59:09.691Z,530
2018-11-07T14:00:19.686Z,510
2018-11-07T14:01:29.141Z,445
2018-11-07T14:02:39.103Z,440
2018-11-07T14:03:48.554Z,445
2018-11-07T14:04:58.513Z,430
2018-11-07T14:06:08.921Z,440
2018-11-07T14:07:18.618Z,445
2018-11-07T14:08:28.324Z,435
2018-11-07T14:09:38.028Z,425
2018-11-07T14:10:47.722Z,400
2018-11-07T14:11:57.161Z,375
2018-11-07T14:13:06.864Z,365
2018-11-07T14:14:16.804Z,355
2018-11-07T14:15:26.248Z,370
2018-11-07T14:16:36.353Z,360
2018-11-07T14:17:46.414Z,340
2018-11-07T14:18:55.882Z,360
2018-11-07T14:20:05.590Z,360
2018-11-07T14:21:15.561Z,335
2018-11-07T14:22:25.273Z,390
2018-11-07T14:23:34.972Z,400
2018-11-07T14:24:44.938Z,375
2018-11-07T14:25:54.901Z,385
2018-11-07T14:27:04.605Z,390
2018-11-07T14:28:15.683Z,355
2018-11-07T14:29:25.837Z,340
2018-11-07T14:30:35.789Z,330
2018-11-07T14:31:45.505Z,350
2018-11-07T14:32:54.959Z,360
2018-11-07T14:34:05.088Z,360
2018-11-07T14:35:15.081Z,360
2018-11-07T14:36:25.039Z,345
2018-11-07T14:37:34.749Z,345
2018-11-07T14:38:44.968Z,360
2018-11-07T14:39:54.487Z,370
2018-11-07T14:41:04.192Z,365
2018-11-07T14:42:13.908Z,360
2018-11-07T14:43:23.404Z,350
2018-11-07T14:44:33.101Z,335
2018-11-07T14:45:42.809Z,325
2018-11-07T14:46:52.281Z,325
2018-11-07T14:48:02.431Z,305
2018-11-07T14:49:11.865Z,280
2018-11-07T14:50:21.565Z,260
2018-11-07T14:51:31.536Z,225
2018-11-07T14:52:41.523Z,185
2018-11-07T14:53:51.634Z,160
2018-11-07T14:55:01.080Z,155
2018-11-07T14:56:11.038Z,140
2018-11-07T14:57:21.015Z,130
2018-11-07T14:58:30.722Z,120
2018-11-07T14:59:40.409Z,110
2018-11-07T15:00:50.129Z,105
2018-11-07T15:01:59.821Z,105
2018-11-07T15:03:09.278Z,105
2018-11-07T15:04:18.758Z,100
2018-11-07T15:05:28.970Z,90
2018-11-07T15:06:38.743Z,85
2018-11-07T15:07:48.178Z,80
2018-11-07T15:08:57.556Z,75
2018-11-07T15:10:07.007Z,75
2018-11-07T15:11:16.888Z,70
2018-11-07T15:12:26.393Z,65
2018-11-07T15:13:36.372Z,60
2018-11-07T15:14:46.329Z,55
2018-11-07T15:15:56.007Z,50
2018-11-07T15:17:06.119Z,45
2018-11-07T15:18:16.080Z,45
2018-11-07T15:19:26.156Z,40
2018-11-07T15:20:35.615Z,35
2018-11-07T15:21:45.327Z,35
2018-11-07T15:22:54.763Z,35
2018-11-07T15:24:04.462Z,30
2018-11-07T15:25:14.461Z,30
2018-11-07T15:26:23.908Z,25
2018-11-07T15:27:33.339Z,25
2018-11-07T15:28:43.051Z,25
2018-11-07T15:29:53.015Z,20
2018-11-07T15:31:02.451Z,20
2018-11-07T15:32:12.143Z,20
2018-11-07T15:33:21.838Z,20
2018-11-07T15:34:31.544Z,15
2018-11-07T15:35:40.973Z,10
2018-11-07T15:36:50.674Z,10
2018-11-07T15:38:00.368Z,5
2018-11-07T15:39:09.811Z,5
2018-11-07T15:40:19.763Z,5
2018-11-07T15:41:29.476Z,0
2018-11-07T15:42:39.437Z,0
2018-11-07T15:43:49.142Z,0
2018-11-07T15:44:58.855Z,0
2018-11-07T15:46:08.563Z,0
2018-11-07T15:47:18.524Z,0
2018-11-07T15:48:28.472Z,0
2018-11-07T15:49:37.922Z,0
2018-11-07T15:50:47.372Z,0
2018-11-07T15:51:57.447Z,0
2018-11-07T15:53:06.887Z,0
2018-11-07T15:54:16.334Z,0
2018-11-07T15:55:26.031Z,0
2018-11-07T15:56:35.461Z,0
2018-11-07T15:57:45.398Z,0
2018-11-07T15:58:54.861Z,0
2018-11-07T16:00:04.956Z,0
2018-11-07T16:01:14.729Z,0
2018-11-07T16:02:24.411Z,0
2018-11-07T16:03:34.114Z,0
2018-11-07T16:04:43.813Z,0
2018-11-07T16:05:53.894Z,0
2018-11-07T16:07:03.868Z,0
2018-11-07T16:08:13.067Z,0
2018-11-07T16:09:23.034Z,0
2018-11-07T16:10:32.687Z,0
2018-11-07T16:11:42.684Z,0
2018-11-07T16:12:52.643Z,0
2018-11-07T16:14:02.522Z,0
2018-11-07T16:15:11.987Z,0
2018-11-07T16:16:21.687Z,0
2018-11-07T16:17:31.645Z,0
2018-11-07T16:18:41.602Z,0
2018-11-07T16:19:51.321Z,0
2018-11-07T16:21:00.775Z,0
2018-11-07T16:22:10.476Z,0
2018-11-07T16:23:20.712Z,0
2018-11-07T16:24:30.512Z,0
2018-11-07T16:25:39.686Z,0
2018-11-07T16:26:49.371Z,0
2018-11-07T16:27:59.065Z,0
2018-11-07T16:29:08.554Z,0